sensor_id;sensor_type;location;lat;lon;timestamp;temperature;humidity
32428;DHT22;18882;50.952;4.366;2023-08-17T00:00:26;19.30;99.90
32428;DHT22;18882;50.952;4.366;2023-08-17T00:02:55;19.30;99.90
32428;DHT22;18882;50.952;4.366;2023-08-17T00:05:23;19.20;99.90
32428;DHT22;18882;50.952;4.366;2023-08-17T00:08:36;19.30;99.90
32428;DHT22;18882;50.952;4.366;2023-08-17T00:12:23;19.30;99.90
32428;DHT22;18882;50.952;4.366;2023-08-17T00:15:46;19.20;99.90
32428;DHT22;18882;50.952;4.366;2023-08-17T00:18:42;19.20;99.90
32428;DHT22;18882;50.952;4.366;2023-08-17T00:21:44;19.10;99.90
32428;DHT22;18882;50.952;4.366;2023-08-17T00:25:21;19.00;99.90
32428;DHT22;18882;50.952;4.366;2023-08-17T00:28:31;19.00;99.90
32428;DHT22;18882;50.952;4.366;2023-08-17T00:31:39;19.00;99.90
32428;DHT22;18882;50.952;4.366;2023-08-17T00:35:04;18.90;99.90
32428;DHT22;18882;50.952;4.366;2023-08-17T00:41:56;18.70;99.90
32428;DHT22;18882;50.952;4.366;2023-08-17T00:45:44;18.60;99.90
32428;DHT22;18882;50.952;4.366;2023-08-17T00:49:06;18.60;99.90
32428;DHT22;18882;50.952;4.366;2023-08-17T00:53:20;18.60;99.90
32428;DHT22;18882;50.952;4.366;2023-08-17T00:56:40;18.60;99.90
32428;DHT22;18882;50.952;4.366;2023-08-17T01:09:21;18.50;99.90
32428;DHT22;18882;50.952;4.366;2023-08-17T01:12:21;18.40;99.90
32428;DHT22;18882;50.952;4.366;2023-08-17T01:15:56;18.40;99.90
32428;DHT22;18882;50.952;4.366;2023-08-17T01:19:02;18.30;99.90
32428;DHT22;18882;50.952;4.366;2023-08-17T01:22:00;18.20;99.90
32428;DHT22;18882;50.952;4.366;2023-08-17T01:28:44;18.20;99.90
32428;DHT22;18882;50.952;4.366;2023-08-17T01:39:43;18.00;99.90
32428;DHT22;18882;50.952;4.366;2023-08-17T01:43:20;17.90;99.90
32428;DHT22;18882;50.952;4.366;2023-08-17T01:47:03;17.90;99.90
32428;DHT22;18882;50.952;4.366;2023-08-17T02:00:58;17.70;99.90
32428;DHT22;18882;50.952;4.366;2023-08-17T02:04:32;17.60;99.90
32428;DHT22;18882;50.952;4.366;2023-08-17T02:07:02;17.60;99.90
32428;DHT22;18882;50.952;4.366;2023-08-17T02:09:31;17.50;99.90
32428;DHT22;18882;50.952;4.366;2023-08-17T02:11:59;17.50;99.90
32428;DHT22;18882;50.952;4.366;2023-08-17T02:14:34;17.50;99.90
32428;DHT22;18882;50.952;4.366;2023-08-17T02:17:00;17.40;99.90
32428;DHT22;18882;50.952;4.366;2023-08-17T02:19:32;17.40;99.90
32428;DHT22;18882;50.952;4.366;2023-08-17T02:22:02;17.30;99.90
32428;DHT22;18882;50.952;4.366;2023-08-17T02:24:54;17.30;99.90
32428;DHT22;18882;50.952;4.366;2023-08-17T02:27:20;17.30;99.90
32428;DHT22;18882;50.952;4.366;2023-08-17T02:29:52;17.30;99.90
32428;DHT22;18882;50.952;4.366;2023-08-17T02:32:24;17.30;99.90
32428;DHT22;18882;50.952;4.366;2023-08-17T02:34:52;17.30;99.90
32428;DHT22;18882;50.952;4.366;2023-08-17T02:44:37;17.40;99.90
32428;DHT22;18882;50.952;4.366;2023-08-17T02:48:11;17.40;99.90
32428;DHT22;18882;50.952;4.366;2023-08-17T02:51:53;17.40;99.90
32428;DHT22;18882;50.952;4.366;2023-08-17T02:58:35;17.40;99.90
32428;DHT22;18882;50.952;4.366;2023-08-17T03:05:01;17.40;99.90
32428;DHT22;18882;50.952;4.366;2023-08-17T03:08:38;17.50;99.90
32428;DHT22;18882;50.952;4.366;2023-08-17T03:16:14;17.50;99.90
32428;DHT22;18882;50.952;4.366;2023-08-17T03:19:53;17.50;99.90
32428;DHT22;18882;50.952;4.366;2023-08-17T03:23:23;17.50;99.90
32428;DHT22;18882;50.952;4.366;2023-08-17T03:26:55;17.50;99.90
32428;DHT22;18882;50.952;4.366;2023-08-17T03:30:31;17.50;99.90
32428;DHT22;18882;50.952;4.366;2023-08-17T03:33:54;17.40;99.90
32428;DHT22;18882;50.952;4.366;2023-08-17T03:36:48;17.40;99.90
32428;DHT22;18882;50.952;4.366;2023-08-17T03:50:26;17.30;99.90
32428;DHT22;18882;50.952;4.366;2023-08-17T03:53:45;17.40;99.90
32428;DHT22;18882;50.952;4.366;2023-08-17T03:57:19;17.40;99.90
32428;DHT22;18882;50.952;4.366;2023-08-17T04:00:50;17.40;99.90
32428;DHT22;18882;50.952;4.366;2023-08-17T04:07:52;17.30;99.90
32428;DHT22;18882;50.952;4.366;2023-08-17T04:11:37;17.30;99.90
32428;DHT22;18882;50.952;4.366;2023-08-17T04:18:48;17.20;99.90
32428;DHT22;18882;50.952;4.366;2023-08-17T04:22:33;17.20;99.90
32428;DHT22;18882;50.952;4.366;2023-08-17T04:26:17;17.20;99.90
32428;DHT22;18882;50.952;4.366;2023-08-17T04:29:31;17.20;99.90
32428;DHT22;18882;50.952;4.366;2023-08-17T04:38:48;17.30;99.90
32428;DHT22;18882;50.952;4.366;2023-08-17T04:42:24;17.30;99.90
32428;DHT22;18882;50.952;4.366;2023-08-17T04:45:47;17.20;99.90
32428;DHT22;18882;50.952;4.366;2023-08-17T04:49:33;17.30;99.90
32428;DHT22;18882;50.952;4.366;2023-08-17T04:52:59;17.40;99.90
32428;DHT22;18882;50.952;4.366;2023-08-17T04:59:47;17.40;99.90
32428;DHT22;18882;50.952;4.366;2023-08-17T05:03:41;17.30;99.90
32428;DHT22;18882;50.952;4.366;2023-08-17T05:07:26;17.30;99.90
32428;DHT22;18882;50.952;4.366;2023-08-17T05:14:31;17.20;99.90
32428;DHT22;18882;50.952;4.366;2023-08-17T05:21:14;17.30;99.90
32428;DHT22;18882;50.952;4.366;2023-08-17T05:23:57;17.30;99.90
32428;DHT22;18882;50.952;4.366;2023-08-17T05:27:24;17.30;99.90
32428;DHT22;18882;50.952;4.366;2023-08-17T05:30:56;17.40;99.90
32428;DHT22;18882;50.952;4.366;2023-08-17T05:34:20;17.40;99.90
32428;DHT22;18882;50.952;4.366;2023-08-17T05:37:54;17.40;99.90
32428;DHT22;18882;50.952;4.366;2023-08-17T05:41:32;17.40;99.90
32428;DHT22;18882;50.952;4.366;2023-08-17T05:47:49;17.50;99.90
32428;DHT22;18882;50.952;4.366;2023-08-17T05:50:15;17.60;99.90
32428;DHT22;18882;50.952;4.366;2023-08-17T05:52:46;17.60;99.90
32428;DHT22;18882;50.952;4.366;2023-08-17T05:55:14;17.60;99.90
32428;DHT22;18882;50.952;4.366;2023-08-17T05:57:41;17.60;99.90
32428;DHT22;18882;50.952;4.366;2023-08-17T06:00:09;17.60;99.90
32428;DHT22;18882;50.952;4.366;2023-08-17T06:02:40;17.60;99.90
32428;DHT22;18882;50.952;4.366;2023-08-17T06:05:15;17.70;99.90
32428;DHT22;18882;50.952;4.366;2023-08-17T06:07:47;17.70;99.90
32428;DHT22;18882;50.952;4.366;2023-08-17T06:10:48;17.60;99.90
32428;DHT22;18882;50.952;4.366;2023-08-17T06:13:18;17.60;99.90
32428;DHT22;18882;50.952;4.366;2023-08-17T06:15:46;17.60;99.90
32428;DHT22;18882;50.952;4.366;2023-08-17T06:18:16;17.60;99.90
32428;DHT22;18882;50.952;4.366;2023-08-17T06:20:47;17.50;99.90
32428;DHT22;18882;50.952;4.366;2023-08-17T06:23:17;17.60;99.90
32428;DHT22;18882;50.952;4.366;2023-08-17T06:25:46;17.60;99.90
32428;DHT22;18882;50.952;4.366;2023-08-17T06:28:17;17.50;99.90
32428;DHT22;18882;50.952;4.366;2023-08-17T06:31:27;17.50;99.90
32428;DHT22;18882;50.952;4.366;2023-08-17T06:33:58;17.60;99.90
32428;DHT22;18882;50.952;4.366;2023-08-17T06:37:31;17.60;99.90
32428;DHT22;18882;50.952;4.366;2023-08-17T06:41:00;17.60;99.90
32428;DHT22;18882;50.952;4.366;2023-08-17T06:53:56;17.70;99.90
32428;DHT22;18882;50.952;4.366;2023-08-17T06:57:25;17.70;99.90
32428;DHT22;18882;50.952;4.366;2023-08-17T07:00:21;17.80;99.90
32428;DHT22;18882;50.952;4.366;2023-08-17T07:02:48;17.70;99.90
32428;DHT22;18882;50.952;4.366;2023-08-17T07:05:16;17.70;99.90
32428;DHT22;18882;50.952;4.366;2023-08-17T07:07:46;17.60;99.90
32428;DHT22;18882;50.952;4.366;2023-08-17T07:10:13;17.70;99.90
32428;DHT22;18882;50.952;4.366;2023-08-17T07:12:40;17.80;99.90
32428;DHT22;18882;50.952;4.366;2023-08-17T07:15:10;17.80;99.90
32428;DHT22;18882;50.952;4.366;2023-08-17T07:17:40;18.00;99.90
32428;DHT22;18882;50.952;4.366;2023-08-17T07:20:11;17.80;99.90
32428;DHT22;18882;50.952;4.366;2023-08-17T07:22:39;17.80;99.90
32428;DHT22;18882;50.952;4.366;2023-08-17T07:25:08;17.70;99.90
32428;DHT22;18882;50.952;4.366;2023-08-17T07:27:36;17.50;99.90
32428;DHT22;18882;50.952;4.366;2023-08-17T07:30:06;17.60;99.90
32428;DHT22;18882;50.952;4.366;2023-08-17T07:32:35;17.70;99.90
32428;DHT22;18882;50.952;4.366;2023-08-17T07:35:10;17.80;99.90
32428;DHT22;18882;50.952;4.366;2023-08-17T07:37:37;17.90;99.90
32428;DHT22;18882;50.952;4.366;2023-08-17T07:40:05;18.30;99.90
32428;DHT22;18882;50.952;4.366;2023-08-17T07:42:52;18.20;99.90
32428;DHT22;18882;50.952;4.366;2023-08-17T07:45:25;18.20;99.90
32428;DHT22;18882;50.952;4.366;2023-08-17T07:47:56;18.10;99.90
32428;DHT22;18882;50.952;4.366;2023-08-17T07:50:28;18.10;99.90
32428;DHT22;18882;50.952;4.366;2023-08-17T07:53:05;18.10;99.90
32428;DHT22;18882;50.952;4.366;2023-08-17T07:55:36;18.10;99.90
32428;DHT22;18882;50.952;4.366;2023-08-17T07:58:04;18.00;99.90
32428;DHT22;18882;50.952;4.366;2023-08-17T08:00:32;18.30;99.90
32428;DHT22;18882;50.952;4.366;2023-08-17T08:03:05;18.30;99.90
32428;DHT22;18882;50.952;4.366;2023-08-17T08:05:33;18.30;99.90
32428;DHT22;18882;50.952;4.366;2023-08-17T08:08:01;18.30;99.90
32428;DHT22;18882;50.952;4.366;2023-08-17T08:10:28;18.20;99.90
32428;DHT22;18882;50.952;4.366;2023-08-17T08:12:56;18.00;99.90
32428;DHT22;18882;50.952;4.366;2023-08-17T08:15:29;18.10;99.90
32428;DHT22;18882;50.952;4.366;2023-08-17T08:17:56;17.90;99.90
32428;DHT22;18882;50.952;4.366;2023-08-17T08:20:24;17.90;99.90
32428;DHT22;18882;50.952;4.366;2023-08-17T08:23:23;18.00;99.90
32428;DHT22;18882;50.952;4.366;2023-08-17T08:26:21;18.00;99.90
32428;DHT22;18882;50.952;4.366;2023-08-17T08:29:02;18.10;99.90
32428;DHT22;18882;50.952;4.366;2023-08-17T08:32:03;18.20;99.90
32428;DHT22;18882;50.952;4.366;2023-08-17T08:34:53;18.20;99.90
32428;DHT22;18882;50.952;4.366;2023-08-17T08:37:50;18.20;99.90
32428;DHT22;18882;50.952;4.366;2023-08-17T08:40:27;18.30;99.90
32428;DHT22;18882;50.952;4.366;2023-08-17T10:47:59;20.00;99.90
32428;DHT22;18882;50.952;4.366;2023-08-17T10:51:41;19.90;99.90
32428;DHT22;18882;50.952;4.366;2023-08-17T10:55:17;19.70;99.90
32428;DHT22;18882;50.952;4.366;2023-08-17T10:58:42;19.60;99.90
32428;DHT22;18882;50.952;4.366;2023-08-17T11:08:51;20.30;99.90
32428;DHT22;18882;50.952;4.366;2023-08-17T11:11:43;20.40;99.90
32428;DHT22;18882;50.952;4.366;2023-08-17T11:15:05;20.50;99.90
32428;DHT22;18882;50.952;4.366;2023-08-17T11:17:44;20.60;99.90
32428;DHT22;18882;50.952;4.366;2023-08-17T14:56:11;21.50;99.90
32428;DHT22;18882;50.952;4.366;2023-08-17T14:59:19;21.40;99.90
32428;DHT22;18882;50.952;4.366;2023-08-17T15:02:30;21.50;99.90
32428;DHT22;18882;50.952;4.366;2023-08-17T15:09:25;21.30;99.90
32428;DHT22;18882;50.952;4.366;2023-08-17T15:12:15;21.10;99.90
32428;DHT22;18882;50.952;4.366;2023-08-17T18:14:56;20.30;99.90
32428;DHT22;18882;50.952;4.366;2023-08-17T18:18:02;20.20;99.90
32428;DHT22;18882;50.952;4.366;2023-08-17T18:21:10;20.20;99.90
32428;DHT22;18882;50.952;4.366;2023-08-17T18:24:57;20.30;99.90
32428;DHT22;18882;50.952;4.366;2023-08-17T18:28:32;20.30;99.90
32428;DHT22;18882;50.952;4.366;2023-08-17T18:31:58;20.20;99.90
32428;DHT22;18882;50.952;4.366;2023-08-17T18:35:22;20.20;99.90
32428;DHT22;18882;50.952;4.366;2023-08-17T18:38:47;20.20;99.90
32428;DHT22;18882;50.952;4.366;2023-08-17T18:42:02;20.20;99.90
32428;DHT22;18882;50.952;4.366;2023-08-17T18:50:57;20.10;99.90
32428;DHT22;18882;50.952;4.366;2023-08-17T18:54:21;20.10;99.90
32428;DHT22;18882;50.952;4.366;2023-08-17T18:57:48;20.10;99.90
32428;DHT22;18882;50.952;4.366;2023-08-17T19:00:59;20.10;99.90
32428;DHT22;18882;50.952;4.366;2023-08-17T19:07:41;20.10;99.90
32428;DHT22;18882;50.952;4.366;2023-08-17T21:21:52;19.60;99.90
32428;DHT22;18882;50.952;4.366;2023-08-17T21:29:07;19.60;99.90
32428;DHT22;18882;50.952;4.366;2023-08-17T21:32:17;19.40;99.90
32428;DHT22;18882;50.952;4.366;2023-08-17T21:39:22;19.30;99.90
32428;DHT22;18882;50.952;4.366;2023-08-17T21:46:19;19.30;99.90
32428;DHT22;18882;50.952;4.366;2023-08-17T21:49:59;19.40;99.90
32428;DHT22;18882;50.952;4.366;2023-08-17T21:53:34;19.50;99.90
32428;DHT22;18882;50.952;4.366;2023-08-17T21:57:05;19.50;99.90
32428;DHT22;18882;50.952;4.366;2023-08-17T22:00:57;19.30;99.90
32428;DHT22;18882;50.952;4.366;2023-08-17T22:04:41;19.40;99.90
32428;DHT22;18882;50.952;4.366;2023-08-17T22:07:48;19.60;99.90
32428;DHT22;18882;50.952;4.366;2023-08-17T22:10:54;19.60;99.90
32428;DHT22;18882;50.952;4.366;2023-08-17T22:14:08;19.60;99.90
32428;DHT22;18882;50.952;4.366;2023-08-17T22:17:33;19.60;99.90
